createdAt,value
2023-05-12T00:02:23.309Z,67.80
2023-05-12T00:04:51.383Z,67.80
2023-05-12T00:07:19.316Z,67.60
2023-05-12T00:09:47.200Z,67.50
2023-05-12T00:12:15.171Z,67.40
2023-05-12T00:14:43.055Z,67.50
2023-05-12T00:17:13.811Z,67.80
2023-05-12T00:19:45.120Z,67.80
2023-05-12T00:22:16.966Z,67.60
2023-05-12T00:24:44.898Z,67.10
2023-05-12T00:27:13.606Z,66.70
2023-05-12T00:29:41.531Z,66.60
2023-05-12T00:32:09.526Z,66.50
2023-05-12T00:34:38.779Z,66.50
2023-05-12T00:37:07.112Z,66.60
2023-05-12T00:39:35.045Z,66.80
2023-05-12T00:42:03.094Z,67.30
2023-05-12T00:44:31.074Z,67.40
2023-05-12T00:46:58.937Z,67.20
2023-05-12T00:49:27.072Z,67.20
2023-05-12T00:51:59.391Z,67.30
2023-05-12T00:54:27.529Z,67.70
2023-05-12T00:56:55.601Z,67.80
2023-05-12T00:59:24.788Z,67.50
2023-05-12T01:01:54.619Z,67.50
2023-05-12T01:04:24.543Z,67.50
2023-05-12T01:06:57.725Z,67.80
2023-05-12T01:09:25.731Z,67.90
2023-05-12T01:12:02.281Z,67.90
2023-05-12T01:14:31.892Z,67.40
2023-05-12T01:17:00.553Z,67.00
2023-05-12T01:19:35.615Z,66.90
2023-05-12T01:22:05.346Z,66.80
2023-05-12T01:24:33.636Z,66.70
2023-05-12T01:27:04.021Z,66.90
2023-05-12T01:29:31.978Z,67.10
2023-05-12T01:32:00.162Z,67.50
2023-05-12T01:34:29.844Z,67.50
2023-05-12T01:36:57.806Z,67.40
2023-05-12T01:39:25.745Z,67.40
2023-05-12T01:41:53.626Z,67.30
2023-05-12T01:44:23.211Z,67.80
2023-05-12T01:46:51.597Z,67.90
2023-05-12T01:49:19.603Z,67.80
2023-05-12T01:51:48.800Z,67.40
2023-05-12T01:54:20.956Z,67.30
2023-05-12T01:56:48.886Z,67.20
2023-05-12T01:59:16.912Z,67.50
2023-05-12T02:01:46.448Z,67.40
2023-05-12T02:04:18.989Z,67.20
2023-05-12T02:06:48.412Z,67.30
2023-05-12T02:09:16.370Z,67.30
2023-05-12T02:11:44.808Z,67.90
2023-05-12T02:14:12.817Z,67.90
2023-05-12T02:16:40.767Z,67.80
2023-05-12T02:19:10.495Z,67.60
2023-05-12T02:21:38.495Z,67.50
2023-05-12T02:24:06.962Z,67.80
2023-05-12T02:26:36.256Z,68.00
2023-05-12T02:29:04.268Z,67.90
2023-05-12T02:31:32.502Z,67.60
2023-05-12T02:34:01.157Z,67.20
2023-05-12T02:36:31.004Z,67.00
2023-05-12T02:38:58.890Z,67.00
2023-05-12T02:41:27.098Z,66.80
2023-05-12T02:43:55.308Z,66.90
2023-05-12T02:46:24.736Z,67.10
2023-05-12T02:48:53.053Z,67.70
2023-05-12T02:51:22.967Z,67.70
2023-05-12T02:53:55.183Z,67.50
2023-05-12T02:56:23.384Z,67.60
2023-05-12T02:58:51.286Z,67.50
2023-05-12T03:01:19.301Z,67.90
2023-05-12T03:03:47.388Z,68.00
2023-05-12T03:06:15.673Z,67.80
2023-05-12T03:08:43.620Z,67.80
2023-05-12T03:11:13.194Z,67.80
2023-05-12T03:13:41.114Z,68.00
2023-05-12T03:16:09.190Z,68.10
2023-05-12T03:18:37.309Z,68.20
2023-05-12T03:21:07.070Z,67.70
2023-05-12T03:23:37.782Z,67.20
2023-05-12T03:26:05.711Z,67.10
2023-05-12T03:28:35.050Z,67.00
2023-05-12T03:31:03.092Z,66.90
2023-05-12T03:33:31.293Z,67.00
2023-05-12T03:35:59.962Z,67.20
2023-05-12T03:38:28.360Z,67.70
2023-05-12T03:41:04.781Z,67.80
2023-05-12T03:43:34.256Z,67.60
2023-05-12T03:46:02.348Z,67.60
2023-05-12T03:48:31.414Z,67.70
2023-05-12T03:50:59.889Z,67.80
2023-05-12T03:53:30.831Z,68.10
2023-05-12T03:55:58.781Z,67.90
2023-05-12T03:58:27.412Z,67.80
2023-05-12T04:00:59.719Z,67.80
2023-05-12T04:03:28.078Z,67.90
2023-05-12T04:05:59.294Z,68.30
2023-05-12T04:08:27.399Z,68.20
2023-05-12T04:10:56.129Z,67.90
2023-05-12T04:13:24.080Z,67.50
2023-05-12T04:15:52.789Z,67.30
2023-05-12T04:18:22.297Z,67.10
2023-05-12T04:20:50.209Z,67.00
2023-05-12T04:23:18.779Z,67.00
2023-05-12T04:25:47.497Z,67.10
2023-05-12T04:28:16.071Z,67.60
2023-05-12T04:30:44.324Z,67.80
2023-05-12T04:33:12.334Z,67.70
2023-05-12T04:35:42.529Z,67.70
2023-05-12T04:38:13.206Z,67.70
2023-05-12T04:40:41.785Z,67.90
2023-05-12T04:43:59.918Z,68.10
2023-05-12T04:45:59.937Z,67.90
2023-05-12T04:48:28.893Z,67.80
2023-05-12T04:50:59.782Z,68.00
2023-05-12T04:53:27.836Z,68.10
2023-05-12T04:55:56.569Z,68.40
2023-05-12T04:58:24.664Z,68.30
2023-05-12T05:00:55.091Z,68.00
2023-05-12T05:03:23.446Z,67.50
2023-05-12T05:05:51.717Z,67.40
2023-05-12T05:08:21.181Z,67.20
2023-05-12T05:10:49.080Z,67.00
2023-05-12T05:13:17.603Z,67.20
2023-05-12T05:15:51.312Z,67.30
2023-05-12T05:18:21.661Z,67.80
2023-05-12T05:20:57.701Z,67.90
2023-05-12T05:23:28.059Z,67.90
2023-05-12T05:25:58.087Z,67.90
2023-05-12T05:28:26.580Z,67.90
2023-05-12T05:30:54.497Z,68.10
2023-05-12T05:33:22.469Z,68.90
2023-05-12T05:35:50.354Z,68.00
2023-05-12T05:38:18.374Z,67.90
2023-05-12T05:40:53.879Z,68.00
2023-05-12T05:43:23.781Z,68.10
2023-05-12T05:45:52.083Z,68.50
2023-05-12T05:48:22.037Z,68.30
2023-05-12T05:50:50.882Z,67.90
2023-05-12T05:53:19.538Z,67.50
2023-05-12T05:55:49.534Z,67.40
2023-05-12T05:58:17.686Z,67.20
2023-05-12T06:00:46.928Z,67.00
2023-05-12T06:03:15.357Z,67.20
2023-05-12T06:05:45.370Z,67.40
2023-05-12T06:08:13.721Z,68.00
2023-05-12T06:10:42.020Z,67.90
2023-05-12T06:13:11.917Z,67.80
2023-05-12T06:15:39.860Z,67.90
2023-05-12T06:18:07.780Z,67.90
2023-05-12T06:20:36.796Z,68.20
2023-05-12T06:23:05.571Z,68.40
2023-05-12T06:25:34.063Z,68.20
2023-05-12T06:28:04.686Z,68.00
2023-05-12T06:30:34.779Z,67.90
2023-05-12T06:33:02.680Z,67.80
2023-05-12T06:35:30.591Z,68.00
2023-05-12T06:37:58.541Z,68.00
2023-05-12T06:40:26.435Z,67.80
2023-05-12T06:42:54.480Z,67.80
2023-05-12T06:45:23.559Z,67.90
2023-05-12T06:47:53.978Z,68.20
2023-05-12T06:50:21.868Z,68.20
2023-05-12T06:52:53.472Z,68.20
2023-05-12T06:55:23.845Z,68.10
2023-05-12T06:57:55.647Z,68.20
2023-05-12T07:00:24.117Z,68.50
2023-05-12T07:02:55.669Z,68.60
2023-05-12T07:05:24.345Z,68.40
2023-05-12T07:07:52.800Z,68.10
2023-05-12T07:10:21.881Z,67.90
2023-05-12T07:12:49.905Z,67.60
2023-05-12T07:15:21.230Z,68.00
2023-05-12T07:17:49.969Z,68.00
2023-05-12T07:20:19.365Z,68.00
2023-05-12T07:22:54.655Z,67.80
2023-05-12T07:25:22.840Z,67.90
2023-05-12T07:27:50.956Z,68.20
2023-05-12T07:30:19.037Z,68.30
2023-05-12T07:32:47.080Z,68.20
2023-05-12T07:35:15.088Z,68.10
2023-05-12T07:37:44.377Z,68.20
2023-05-12T07:40:12.744Z,68.30
2023-05-12T07:42:40.653Z,68.60
2023-05-12T07:45:09.473Z,68.50
2023-05-12T07:47:37.417Z,68.20
2023-05-12T07:50:05.685Z,68.00
2023-05-12T07:52:33.919Z,67.90
2023-05-12T07:55:03.363Z,68.00
2023-05-12T07:57:31.270Z,68.10
2023-05-12T08:00:00.427Z,67.90
2023-05-12T08:02:28.504Z,67.90
2023-05-12T08:04:56.595Z,67.90
2023-05-12T08:07:24.591Z,68.00
2023-05-12T08:09:52.517Z,68.40
2023-05-12T08:12:22.184Z,68.50
2023-05-12T08:14:50.075Z,68.30
2023-05-12T08:17:18.506Z,68.30
2023-05-12T08:19:46.513Z,68.20
2023-05-12T08:22:16.766Z,68.50
2023-05-12T08:24:44.637Z,68.80
2023-05-12T08:27:12.478Z,68.70
2023-05-12T08:29:41.824Z,68.30
2023-05-12T08:32:09.747Z,68.00
2023-05-12T08:34:37.643Z,67.70
2023-05-12T08:37:06.265Z,67.60
2023-05-12T08:39:34.154Z,67.60
2023-05-12T08:42:09.240Z,67.70
2023-05-12T08:44:37.964Z,67.90
2023-05-12T08:47:07.578Z,68.30
2023-05-12T08:49:36.792Z,68.50
2023-05-12T08:52:05.020Z,68.20
2023-05-12T08:54:33.455Z,68.20
2023-05-12T08:59:35.600Z,68.50
2023-05-12T09:02:04.435Z,68.80
2023-05-12T09:04:34.146Z,68.60
2023-05-12T09:07:02.170Z,68.50
2023-05-12T09:09:30.069Z,68.60
2023-05-12T09:11:58.092Z,68.60
2023-05-12T09:14:28.512Z,68.80
2023-05-12T09:17:00.840Z,68.80
2023-05-12T09:19:28.982Z,68.30
2023-05-12T09:21:58.220Z,68.10
2023-05-12T09:24:34.958Z,67.70
2023-05-12T09:27:03.830Z,67.60
2023-05-12T09:29:35.864Z,67.60
2023-05-12T09:32:10.271Z,67.70
2023-05-12T09:34:41.240Z,67.90
2023-05-12T09:37:11.561Z,68.30
2023-05-12T09:39:40.589Z,68.30
2023-05-12T09:42:12.523Z,68.30
2023-05-12T09:44:40.598Z,68.20
2023-05-12T09:47:10.142Z,68.40
2023-05-12T09:49:38.233Z,68.70
2023-05-12T09:52:06.669Z,68.70
2023-05-12T09:54:36.410Z,68.50
2023-05-12T09:57:05.266Z,68.60
2023-05-12T09:59:34.290Z,68.60
2023-05-12T10:02:04.554Z,69.00
2023-05-12T10:04:40.084Z,69.00
2023-05-12T10:07:08.401Z,68.80
2023-05-12T10:09:39.344Z,68.30
2023-05-12T10:12:07.675Z,68.20
2023-05-12T10:14:35.904Z,67.90
2023-05-12T10:17:04.005Z,68.30
2023-05-12T10:19:32.117Z,68.40
2023-05-12T10:22:00.053Z,68.20
2023-05-12T10:24:29.006Z,68.20
2023-05-12T10:27:02.004Z,68.30
2023-05-12T10:29:31.118Z,68.50
2023-05-12T10:32:06.519Z,68.80
2023-05-12T10:34:34.891Z,68.60
2023-05-12T10:37:03.624Z,68.50
2023-05-12T10:39:32.729Z,68.50
2023-05-12T10:42:08.332Z,68.70
2023-05-12T10:44:36.360Z,69.00
2023-05-12T10:47:05.108Z,69.00
2023-05-12T10:49:33.812Z,68.60
2023-05-12T10:52:01.827Z,68.30
2023-05-12T10:54:29.730Z,68.00
2023-05-12T10:57:00.276Z,68.20
2023-05-12T10:59:29.891Z,68.40
2023-05-12T11:02:03.988Z,68.30
2023-05-12T11:04:44.959Z,68.20
2023-05-12T11:07:14.525Z,68.30
2023-05-12T11:09:53.566Z,68.40
2023-05-12T11:12:26.369Z,68.80
2023-05-12T11:14:55.626Z,68.70
2023-05-12T11:17:23.663Z,68.60
2023-05-12T11:19:52.520Z,68.60
2023-05-12T11:22:21.523Z,68.80
2023-05-12T11:24:50.026Z,69.10
2023-05-12T11:27:20.214Z,68.80
2023-05-12T11:29:57.909Z,68.80
2023-05-12T11:32:26.009Z,68.70
2023-05-12T11:34:54.111Z,68.80
2023-05-12T11:37:22.060Z,69.10
2023-05-12T11:39:50.039Z,69.20
2023-05-12T11:42:20.563Z,69.00
2023-05-12T11:44:49.955Z,68.50
2023-05-12T11:47:20.247Z,68.10
2023-05-12T11:49:48.891Z,67.90
2023-05-12T11:52:17.353Z,67.80
2023-05-12T11:54:49.587Z,67.90
2023-05-12T11:57:26.195Z,68.00
2023-05-12T11:59:59.953Z,68.30
2023-05-12T12:02:29.354Z,68.50
2023-05-12T12:04:57.676Z,68.50
2023-05-12T12:07:32.499Z,68.50
2023-05-12T12:10:00.844Z,68.50
2023-05-12T12:12:28.800Z,68.70
2023-05-12T12:15:00.178Z,69.00
2023-05-12T12:17:31.238Z,68.90
2023-05-12T12:20:02.168Z,68.60
2023-05-12T12:22:34.008Z,68.40
2023-05-12T12:25:02.126Z,68.20
2023-05-12T12:27:29.997Z,68.60
2023-05-12T12:29:57.882Z,68.60
2023-05-12T12:32:25.990Z,68.40
2023-05-12T12:34:59.461Z,68.40
2023-05-12T12:37:27.468Z,68.50
2023-05-12T12:39:55.995Z,68.60
2023-05-12T12:42:23.928Z,69.00
2023-05-12T12:44:52.478Z,68.90
2023-05-12T12:47:23.420Z,68.70
2023-05-12T12:49:51.629Z,68.60
2023-05-12T12:52:21.223Z,68.80
2023-05-12T12:54:49.166Z,68.90
2023-05-12T12:57:17.093Z,69.20
2023-05-12T12:59:45.058Z,69.00
2023-05-12T13:02:13.002Z,68.70
2023-05-12T13:04:40.936Z,68.50
2023-05-12T13:07:08.845Z,68.20
2023-05-12T13:09:38.101Z,68.60
2023-05-12T13:12:07.720Z,68.70
2023-05-12T13:14:35.741Z,68.40
2023-05-12T13:17:03.713Z,68.40
2023-05-12T13:19:31.658Z,68.40
2023-05-12T13:22:02.758Z,68.70
2023-05-12T13:24:30.703Z,69.00
2023-05-12T13:27:00.020Z,68.80
2023-05-12T13:29:27.934Z,68.80
2023-05-12T13:31:55.834Z,68.80
2023-05-12T13:34:23.733Z,68.80
2023-05-12T13:36:51.865Z,69.20
2023-05-12T13:39:19.930Z,69.10
2023-05-12T13:41:47.872Z,68.70
2023-05-12T13:44:17.182Z,68.60
2023-05-12T13:46:45.167Z,68.50
2023-05-12T13:49:13.871Z,68.30
2023-05-12T13:51:41.973Z,68.70
2023-05-12T13:54:09.906Z,68.70
2023-05-12T13:56:38.390Z,68.50
2023-05-12T13:59:06.398Z,68.50
2023-05-12T14:01:35.806Z,68.60
2023-05-12T14:04:03.895Z,69.00
2023-05-12T14:06:32.177Z,69.00
2023-05-12T14:09:00.162Z,68.90
2023-05-12T14:11:28.038Z,68.80
2023-05-12T14:13:56.063Z,68.90
2023-05-12T14:16:24.375Z,69.10
2023-05-12T14:18:54.229Z,69.20
2023-05-12T14:21:23.239Z,69.00
2023-05-12T14:23:51.745Z,68.90
2023-05-12T14:26:19.686Z,68.90
2023-05-12T14:28:47.755Z,69.00
2023-05-12T14:31:15.989Z,69.40
2023-05-12T14:33:43.916Z,69.30
2023-05-12T14:36:13.279Z,69.10
2023-05-12T14:38:41.376Z,68.70
2023-05-12T14:41:09.611Z,68.20
2023-05-12T14:43:38.254Z,68.10
2023-05-12T14:46:07.154Z,68.00
2023-05-12T14:48:35.213Z,68.00
2023-05-12T14:51:03.297Z,68.20
2023-05-12T14:53:32.866Z,68.50
2023-05-12T14:56:02.577Z,68.80
2023-05-12T14:58:30.998Z,68.70
2023-05-12T15:01:03.164Z,68.70
2023-05-12T15:03:31.365Z,68.80
2023-05-12T15:06:07.102Z,68.90
2023-05-12T15:08:37.024Z,69.20
2023-05-12T15:11:05.018Z,69.10
2023-05-12T15:13:32.994Z,68.90
2023-05-12T15:16:02.917Z,68.70
2023-05-12T15:18:30.912Z,68.50
2023-05-12T15:20:58.934Z,68.80
2023-05-12T15:23:27.196Z,68.90
2023-05-12T15:25:57.999Z,68.70
2023-05-12T15:28:26.424Z,68.70
2023-05-12T15:30:57.365Z,68.70
2023-05-12T15:33:25.590Z,69.00
2023-05-12T15:35:53.553Z,69.20
2023-05-12T15:38:24.478Z,68.90
2023-05-12T15:40:52.387Z,68.90
2023-05-12T15:43:21.657Z,68.90
2023-05-12T15:45:49.677Z,69.20
2023-05-12T15:48:17.979Z,69.40
2023-05-12T15:50:45.994Z,69.20
2023-05-12T15:53:14.135Z,69.10
2023-05-12T15:55:42.166Z,69.10
2023-05-12T15:58:10.133Z,69.10
2023-05-12T16:00:40.451Z,69.50
2023-05-12T16:03:09.132Z,69.50
2023-05-12T16:05:41.159Z,69.20
2023-05-12T16:08:09.110Z,68.80
2023-05-12T16:10:37.060Z,68.40
2023-05-12T16:13:05.114Z,68.10
2023-05-12T16:15:33.127Z,68.10
2023-05-12T16:18:02.503Z,68.00
2023-05-12T16:20:33.624Z,68.10
2023-05-12T16:23:02.385Z,68.40
2023-05-12T16:25:30.285Z,68.90
2023-05-12T16:27:58.206Z,68.80
2023-05-12T16:30:26.342Z,68.80
2023-05-12T16:32:54.481Z,68.80
2023-05-12T16:35:24.039Z,68.80
2023-05-12T16:37:52.524Z,69.10
2023-05-12T16:40:20.745Z,69.30
2023-05-12T16:42:51.034Z,69.10
2023-05-12T16:45:19.456Z,69.00
2023-05-12T16:47:47.872Z,69.10
2023-05-12T16:50:15.893Z,69.10
2023-05-12T16:52:45.221Z,69.50
2023-05-12T16:55:13.403Z,69.50
2023-05-12T16:57:43.359Z,69.20
2023-05-12T17:00:12.594Z,68.80
2023-05-12T17:02:40.874Z,68.30
2023-05-12T17:05:09.382Z,68.20
2023-05-12T17:07:37.878Z,68.10
2023-05-12T17:10:07.813Z,68.20
2023-05-12T17:12:36.733Z,68.30
2023-05-12T17:15:08.002Z,68.80
2023-05-12T17:17:39.542Z,68.90
2023-05-12T17:20:09.153Z,68.80
2023-05-12T17:22:41.463Z,68.80
2023-05-12T17:25:11.220Z,68.80
2023-05-12T17:27:39.225Z,69.20
2023-05-12T17:30:09.186Z,69.30
2023-05-12T17:32:37.370Z,69.00
2023-05-12T17:35:05.842Z,69.00
2023-05-12T17:37:33.899Z,69.00
2023-05-12T17:40:01.929Z,69.10
2023-05-12T17:42:31.838Z,69.60
2023-05-12T17:44:59.775Z,69.50
2023-05-12T17:47:27.791Z,69.20
2023-05-12T17:49:55.850Z,68.80
2023-05-12T17:52:23.804Z,68.70
2023-05-12T17:54:55.575Z,68.50
2023-05-12T17:57:23.516Z,68.80
2023-05-12T17:59:53.080Z,68.80
2023-05-12T18:02:21.174Z,68.70
2023-05-12T18:04:49.185Z,68.70
2023-05-12T18:07:17.352Z,68.80
2023-05-12T18:09:45.629Z,69.20
2023-05-12T18:12:13.922Z,69.20
2023-05-12T18:14:41.842Z,69.10
2023-05-12T18:17:11.162Z,69.00
2023-05-12T18:19:40.366Z,69.10
2023-05-12T18:22:08.314Z,69.30
2023-05-12T18:24:36.787Z,69.50
2023-05-12T18:27:06.477Z,69.40
2023-05-12T18:29:34.667Z,69.00
2023-05-12T18:32:02.602Z,68.80
2023-05-12T18:34:32.099Z,68.70
2023-05-12T18:37:02.503Z,68.90
2023-05-12T18:39:30.846Z,68.90
2023-05-12T18:42:02.267Z,68.70
2023-05-12T18:44:30.181Z,69.40
2023-05-12T18:46:58.075Z,68.80
2023-05-12T18:49:27.757Z,69.10
2023-05-12T18:51:57.026Z,69.30
2023-05-12T18:54:24.917Z,69.10
2023-05-12T18:56:52.788Z,69.10
2023-05-12T18:59:20.874Z,69.10
2023-05-12T19:01:51.386Z,69.40
2023-05-12T19:04:19.903Z,69.50
2023-05-12T19:06:48.012Z,69.40
2023-05-12T19:09:20.068Z,69.30
2023-05-12T19:11:48.037Z,69.20
2023-05-12T19:14:17.658Z,69.30
2023-05-12T19:16:46.648Z,69.60
2023-05-12T19:19:20.455Z,69.60
2023-05-12T19:21:48.378Z,69.20
2023-05-12T19:24:16.349Z,68.90
2023-05-12T19:26:48.233Z,68.80
2023-05-12T19:29:16.180Z,68.70
2023-05-12T19:31:44.137Z,69.00
2023-05-12T19:34:12.079Z,68.90
2023-05-12T19:36:40.019Z,68.80
2023-05-12T19:39:07.962Z,68.70
2023-05-12T19:41:35.992Z,68.90
2023-05-12T19:44:05.359Z,69.20
2023-05-12T19:46:33.287Z,69.30
2023-05-12T19:49:01.239Z,69.50
2023-05-12T19:51:29.509Z,69.10
2023-05-12T19:53:57.452Z,69.20
2023-05-12T19:56:25.380Z,69.40
2023-05-12T19:58:53.287Z,69.70
2023-05-12T20:01:22.661Z,69.60
2023-05-12T20:03:50.645Z,69.10
2023-05-12T20:06:18.643Z,68.90
2023-05-12T20:08:46.643Z,68.80
2023-05-12T20:11:14.564Z,68.90
2023-05-12T20:13:42.530Z,69.00
2023-05-12T20:16:13.031Z,69.00
2023-05-12T20:18:42.285Z,68.80
2023-05-12T20:21:10.260Z,68.90
2023-05-12T20:23:38.165Z,69.80
2023-05-12T20:26:06.415Z,69.40
2023-05-12T20:28:34.332Z,69.30
2023-05-12T20:31:02.325Z,69.20
2023-05-12T20:33:30.302Z,69.30
2023-05-12T20:35:59.582Z,69.40
2023-05-12T20:38:27.464Z,69.60
2023-05-12T20:40:55.374Z,69.70
2023-05-12T20:43:23.401Z,70.10
2023-05-12T20:45:51.398Z,69.10
2023-05-12T20:48:19.391Z,68.90
2023-05-12T20:50:47.342Z,68.80
2023-05-12T20:53:16.630Z,69.10
2023-05-12T20:55:44.543Z,69.10
2023-05-12T20:58:12.470Z,69.00
2023-05-12T21:00:40.400Z,68.90
2023-05-12T21:03:14.219Z,69.00
2023-05-12T21:05:47.453Z,69.20
2023-05-12T21:08:16.900Z,69.50
2023-05-12T21:10:44.795Z,69.30
2023-05-12T21:13:12.701Z,69.20
2023-05-12T21:15:40.603Z,69.30
2023-05-12T21:18:09.014Z,69.50
2023-05-12T21:20:37.254Z,69.60
2023-05-12T21:23:05.181Z,69.50
2023-05-12T21:25:34.434Z,69.50
2023-05-12T21:28:02.461Z,69.40
2023-05-12T21:30:30.390Z,69.50
2023-05-12T21:32:58.458Z,69.80
2023-05-12T21:35:26.636Z,69.60
2023-05-12T21:37:54.572Z,69.30
2023-05-12T21:40:22.787Z,68.80
2023-05-12T21:42:52.200Z,68.50
2023-05-12T21:45:21.515Z,68.40
2023-05-12T21:47:51.160Z,68.30
2023-05-12T21:50:21.559Z,68.50
2023-05-12T21:52:49.738Z,68.60
2023-05-12T21:55:17.854Z,69.00
2023-05-12T21:57:45.769Z,69.20
2023-05-12T22:00:19.905Z,69.10
2023-05-12T22:02:48.572Z,69.10
2023-05-12T22:05:18.703Z,69.10
2023-05-12T22:07:46.598Z,69.40
2023-05-12T22:10:14.694Z,69.60
2023-05-12T22:12:42.627Z,69.50
2023-05-12T22:15:13.691Z,69.20
2023-05-12T22:17:43.096Z,69.00
2023-05-12T22:20:12.210Z,68.80
2023-05-12T22:22:40.167Z,69.20
2023-05-12T22:25:09.263Z,69.10
2023-05-12T22:27:37.474Z,69.10
2023-05-12T22:30:05.997Z,69.10
2023-05-12T22:32:33.983Z,69.90
2023-05-12T22:35:03.330Z,69.20
2023-05-12T22:37:31.316Z,69.60
2023-05-12T22:39:59.251Z,69.50
2023-05-12T22:42:27.190Z,69.50
2023-05-12T22:44:55.097Z,69.30
2023-05-12T22:47:23.011Z,69.50
2023-05-12T22:49:50.929Z,69.50
2023-05-12T22:52:20.200Z,69.80
2023-05-12T22:54:50.491Z,69.70
2023-05-12T22:57:20.984Z,69.20
2023-05-12T22:59:48.892Z,69.10
2023-05-12T23:02:16.938Z,68.80
2023-05-12T23:04:44.893Z,69.00
2023-05-12T23:07:12.793Z,69.80
2023-05-12T23:09:42.116Z,68.90
2023-05-12T23:12:10.483Z,68.80
2023-05-12T23:14:41.381Z,69.00
2023-05-12T23:17:09.368Z,69.00
2023-05-12T23:19:37.799Z,69.50
2023-05-12T23:22:05.968Z,69.40
2023-05-12T23:24:34.087Z,69.30
2023-05-12T23:27:03.447Z,69.30
2023-05-12T23:29:31.379Z,69.30
2023-05-12T23:31:59.483Z,69.80
2023-05-12T23:34:27.473Z,69.60
2023-05-12T23:36:55.507Z,69.40
2023-05-12T23:39:23.433Z,69.50
2023-05-12T23:41:51.305Z,69.50
2023-05-12T23:44:20.561Z,69.80
2023-05-12T23:46:48.453Z,69.90
2023-05-12T23:49:16.930Z,69.70
2023-05-12T23:51:44.877Z,69.30
2023-05-12T23:54:12.842Z,69.10
2023-05-12T23:56:41.986Z,68.90
2023-05-12T23:59:09.888Z,69.10
